sensor_id;sensor_type;location;lat;lon;timestamp;P1;durP1;ratioP1;P2;durP2;ratioP2
48871;SDS011;36154;51.674;7.824;2022-12-07T00:00:46;0.10;;;0.10;;
48871;SDS011;36154;51.674;7.824;2022-12-07T00:03:11;0.22;;;0.17;;
48871;SDS011;36154;51.674;7.824;2022-12-07T00:05:36;0.20;;;0.20;;
48871;SDS011;36154;51.674;7.824;2022-12-07T00:08:02;0.10;;;0.10;;
48871;SDS011;36154;51.674;7.824;2022-12-07T00:10:27;0.20;;;0.20;;
48871;SDS011;36154;51.674;7.824;2022-12-07T00:12:52;0.10;;;0.10;;
48871;SDS011;36154;51.674;7.824;2022-12-07T00:15:18;0.10;;;0.10;;
48871;SDS011;36154;51.674;7.824;2022-12-07T00:17:43;0.10;;;0.10;;
48871;SDS011;36154;51.674;7.824;2022-12-07T00:20:10;0.20;;;0.20;;
48871;SDS011;36154;51.674;7.824;2022-12-07T00:22:36;0.25;;;0.20;;
48871;SDS011;36154;51.674;7.824;2022-12-07T00:25:01;0.10;;;0.10;;
48871;SDS011;36154;51.674;7.824;2022-12-07T00:27:27;0.10;;;0.10;;
48871;SDS011;36154;51.674;7.824;2022-12-07T00:29:52;0.20;;;0.10;;
48871;SDS011;36154;51.674;7.824;2022-12-07T00:32:17;0.10;;;0.10;;
48871;SDS011;36154;51.674;7.824;2022-12-07T00:34:42;0.10;;;0.10;;
48871;SDS011;36154;51.674;7.824;2022-12-07T00:37:08;0.10;;;0.10;;
48871;SDS011;36154;51.674;7.824;2022-12-07T00:39:33;0.10;;;0.10;;
48871;SDS011;36154;51.674;7.824;2022-12-07T00:41:58;0.10;;;0.10;;
48871;SDS011;36154;51.674;7.824;2022-12-07T00:44:24;0.10;;;0.10;;
48871;SDS011;36154;51.674;7.824;2022-12-07T00:46:49;0.15;;;0.10;;
48871;SDS011;36154;51.674;7.824;2022-12-07T00:49:14;0.10;;;0.10;;
48871;SDS011;36154;51.674;7.824;2022-12-07T00:51:39;0.10;;;0.10;;
48871;SDS011;36154;51.674;7.824;2022-12-07T00:54:05;0.10;;;0.10;;
48871;SDS011;36154;51.674;7.824;2022-12-07T00:56:30;0.03;;;0.03;;
48871;SDS011;36154;51.674;7.824;2022-12-07T00:59:02;0.10;;;0.10;;
48871;SDS011;36154;51.674;7.824;2022-12-07T01:01:32;0.15;;;0.10;;
48871;SDS011;36154;51.674;7.824;2022-12-07T01:04:00;0.08;;;0.08;;
48871;SDS011;36154;51.674;7.824;2022-12-07T01:06:28;0.10;;;0.10;;
48871;SDS011;36154;51.674;7.824;2022-12-07T01:08:54;0.10;;;0.10;;
48871;SDS011;36154;51.674;7.824;2022-12-07T01:11:21;0.10;;;0.10;;
48871;SDS011;36154;51.674;7.824;2022-12-07T01:13:52;0.10;;;0.10;;
48871;SDS011;36154;51.674;7.824;2022-12-07T01:16:20;0.10;;;0.10;;
48871;SDS011;36154;51.674;7.824;2022-12-07T01:18:48;0.13;;;0.10;;
48871;SDS011;36154;51.674;7.824;2022-12-07T01:21:15;0.08;;;0.08;;
48871;SDS011;36154;51.674;7.824;2022-12-07T01:23:43;0.10;;;0.10;;
48871;SDS011;36154;51.674;7.824;2022-12-07T01:26:13;0.10;;;0.10;;
48871;SDS011;36154;51.674;7.824;2022-12-07T01:28:41;0.45;;;0.10;;
48871;SDS011;36154;51.674;7.824;2022-12-07T01:31:08;0.03;;;0.03;;
48871;SDS011;36154;51.674;7.824;2022-12-07T01:33:46;0.00;;;0.00;;
48871;SDS011;36154;51.674;7.824;2022-12-07T01:36:14;0.00;;;0.00;;
48871;SDS011;36154;51.674;7.824;2022-12-07T01:38:41;0.25;;;0.10;;
48871;SDS011;36154;51.674;7.824;2022-12-07T01:41:08;0.10;;;0.10;;
48871;SDS011;36154;51.674;7.824;2022-12-07T01:43:33;0.10;;;0.10;;
48871;SDS011;36154;51.674;7.824;2022-12-07T01:46:00;0.17;;;0.17;;
48871;SDS011;36154;51.674;7.824;2022-12-07T01:48:43;0.10;;;0.10;;
48871;SDS011;36154;51.674;7.824;2022-12-07T01:51:11;0.03;;;0.03;;
48871;SDS011;36154;51.674;7.824;2022-12-07T01:53:40;0.10;;;0.10;;
48871;SDS011;36154;51.674;7.824;2022-12-07T01:56:10;0.10;;;0.10;;
48871;SDS011;36154;51.674;7.824;2022-12-07T01:58:41;0.10;;;0.10;;
48871;SDS011;36154;51.674;7.824;2022-12-07T02:01:08;0.10;;;0.10;;
48871;SDS011;36154;51.674;7.824;2022-12-07T02:03:38;0.10;;;0.10;;
48871;SDS011;36154;51.674;7.824;2022-12-07T02:06:05;0.10;;;0.10;;
48871;SDS011;36154;51.674;7.824;2022-12-07T02:08:32;0.10;;;0.10;;
48871;SDS011;36154;51.674;7.824;2022-12-07T02:10:58;0.15;;;0.10;;
48871;SDS011;36154;51.674;7.824;2022-12-07T02:13:26;0.10;;;0.10;;
48871;SDS011;36154;51.674;7.824;2022-12-07T02:16:08;0.10;;;0.10;;
48871;SDS011;36154;51.674;7.824;2022-12-07T02:19:09;0.00;;;0.00;;
48871;SDS011;36154;51.674;7.824;2022-12-07T02:28:07;0.10;;;0.10;;
48871;SDS011;36154;51.674;7.824;2022-12-07T02:30:44;0.10;;;0.10;;
48871;SDS011;36154;51.674;7.824;2022-12-07T02:33:14;0.10;;;0.10;;
48871;SDS011;36154;51.674;7.824;2022-12-07T02:38:35;0.00;;;0.00;;
48871;SDS011;36154;51.674;7.824;2022-12-07T02:41:10;0.30;;;0.10;;
48871;SDS011;36154;51.674;7.824;2022-12-07T02:43:51;0.05;;;0.05;;
48871;SDS011;36154;51.674;7.824;2022-12-07T02:46:21;0.10;;;0.10;;
48871;SDS011;36154;51.674;7.824;2022-12-07T02:48:50;0.00;;;0.00;;
48871;SDS011;36154;51.674;7.824;2022-12-07T02:51:17;0.10;;;0.10;;
48871;SDS011;36154;51.674;7.824;2022-12-07T02:53:43;0.00;;;0.00;;
48871;SDS011;36154;51.674;7.824;2022-12-07T03:01:34;0.25;;;0.10;;
48871;SDS011;36154;51.674;7.824;2022-12-07T03:04:19;0.10;;;0.10;;
48871;SDS011;36154;51.674;7.824;2022-12-07T03:06:58;0.10;;;0.10;;
48871;SDS011;36154;51.674;7.824;2022-12-07T03:14:40;0.00;;;0.00;;
48871;SDS011;36154;51.674;7.824;2022-12-07T03:17:12;0.10;;;0.10;;
48871;SDS011;36154;51.674;7.824;2022-12-07T03:19:41;0.10;;;0.00;;
48871;SDS011;36154;51.674;7.824;2022-12-07T03:22:10;0.03;;;0.03;;
48871;SDS011;36154;51.674;7.824;2022-12-07T03:24:42;0.00;;;0.00;;
48871;SDS011;36154;51.674;7.824;2022-12-07T03:27:13;0.10;;;0.10;;
48871;SDS011;36154;51.674;7.824;2022-12-07T03:29:44;0.10;;;0.00;;
48871;SDS011;36154;51.674;7.824;2022-12-07T03:32:15;0.10;;;0.10;;
48871;SDS011;36154;51.674;7.824;2022-12-07T03:37:32;0.00;;;0.00;;
48871;SDS011;36154;51.674;7.824;2022-12-07T03:40:04;0.10;;;0.10;;
48871;SDS011;36154;51.674;7.824;2022-12-07T03:42:38;0.10;;;0.10;;
48871;SDS011;36154;51.674;7.824;2022-12-07T03:45:04;0.00;;;0.00;;
48871;SDS011;36154;51.674;7.824;2022-12-07T03:50:47;0.03;;;0.03;;
48871;SDS011;36154;51.674;7.824;2022-12-07T03:53:34;0.10;;;0.10;;
48871;SDS011;36154;51.674;7.824;2022-12-07T03:56:05;0.00;;;0.00;;
48871;SDS011;36154;51.674;7.824;2022-12-07T03:58:33;0.50;;;0.10;;
48871;SDS011;36154;51.674;7.824;2022-12-07T04:00:59;0.38;;;0.10;;
48871;SDS011;36154;51.674;7.824;2022-12-07T04:03:24;0.00;;;0.00;;
48871;SDS011;36154;51.674;7.824;2022-12-07T04:05:50;0.00;;;0.00;;
48871;SDS011;36154;51.674;7.824;2022-12-07T04:08:15;0.00;;;0.00;;
48871;SDS011;36154;51.674;7.824;2022-12-07T04:10:40;0.00;;;0.00;;
48871;SDS011;36154;51.674;7.824;2022-12-07T04:13:06;0.00;;;0.00;;
48871;SDS011;36154;51.674;7.824;2022-12-07T04:15:31;0.10;;;0.10;;
48871;SDS011;36154;51.674;7.824;2022-12-07T04:17:56;0.10;;;0.10;;
48871;SDS011;36154;51.674;7.824;2022-12-07T04:20:24;0.10;;;0.10;;
48871;SDS011;36154;51.674;7.824;2022-12-07T04:22:49;0.03;;;0.03;;
48871;SDS011;36154;51.674;7.824;2022-12-07T04:25:15;1.05;;;0.00;;
48871;SDS011;36154;51.674;7.824;2022-12-07T04:27:40;0.00;;;0.00;;
48871;SDS011;36154;51.674;7.824;2022-12-07T04:30:05;0.20;;;0.10;;
48871;SDS011;36154;51.674;7.824;2022-12-07T04:32:31;0.05;;;0.05;;
48871;SDS011;36154;51.674;7.824;2022-12-07T04:34:56;0.10;;;0.03;;
48871;SDS011;36154;51.674;7.824;2022-12-07T04:37:22;0.20;;;0.05;;
48871;SDS011;36154;51.674;7.824;2022-12-07T04:39:48;0.05;;;0.00;;
48871;SDS011;36154;51.674;7.824;2022-12-07T04:42:14;0.30;;;0.10;;
48871;SDS011;36154;51.674;7.824;2022-12-07T04:44:39;0.00;;;0.00;;
48871;SDS011;36154;51.674;7.824;2022-12-07T04:47:05;0.00;;;0.00;;
48871;SDS011;36154;51.674;7.824;2022-12-07T04:49:30;0.10;;;0.10;;
48871;SDS011;36154;51.674;7.824;2022-12-07T04:51:55;0.10;;;0.10;;
48871;SDS011;36154;51.674;7.824;2022-12-07T04:54:21;0.00;;;0.00;;
48871;SDS011;36154;51.674;7.824;2022-12-07T04:56:46;0.00;;;0.00;;
48871;SDS011;36154;51.674;7.824;2022-12-07T04:59:12;0.10;;;0.10;;
48871;SDS011;36154;51.674;7.824;2022-12-07T05:01:39;0.32;;;0.00;;
48871;SDS011;36154;51.674;7.824;2022-12-07T05:04:05;0.00;;;0.00;;
48871;SDS011;36154;51.674;7.824;2022-12-07T05:06:31;0.00;;;0.00;;
48871;SDS011;36154;51.674;7.824;2022-12-07T05:08:56;0.10;;;0.10;;
48871;SDS011;36154;51.674;7.824;2022-12-07T05:11:21;0.10;;;0.10;;
48871;SDS011;36154;51.674;7.824;2022-12-07T05:14:06;0.00;;;0.00;;
48871;SDS011;36154;51.674;7.824;2022-12-07T05:16:34;0.20;;;0.10;;
48871;SDS011;36154;51.674;7.824;2022-12-07T05:18:59;0.10;;;0.10;;
48871;SDS011;36154;51.674;7.824;2022-12-07T05:21:24;0.10;;;0.10;;
48871;SDS011;36154;51.674;7.824;2022-12-07T05:23:49;0.00;;;0.00;;
48871;SDS011;36154;51.674;7.824;2022-12-07T05:26:15;0.08;;;0.08;;
48871;SDS011;36154;51.674;7.824;2022-12-07T05:28:41;0.10;;;0.10;;
48871;SDS011;36154;51.674;7.824;2022-12-07T05:31:08;0.08;;;0.00;;
48871;SDS011;36154;51.674;7.824;2022-12-07T05:33:34;0.10;;;0.10;;
48871;SDS011;36154;51.674;7.824;2022-12-07T05:35:59;0.10;;;0.10;;
48871;SDS011;36154;51.674;7.824;2022-12-07T05:38:30;0.55;;;0.10;;
48871;SDS011;36154;51.674;7.824;2022-12-07T05:40:59;0.10;;;0.10;;
48871;SDS011;36154;51.674;7.824;2022-12-07T05:43:26;0.00;;;0.00;;
48871;SDS011;36154;51.674;7.824;2022-12-07T05:45:51;0.10;;;0.10;;
48871;SDS011;36154;51.674;7.824;2022-12-07T05:48:16;0.45;;;0.20;;
48871;SDS011;36154;51.674;7.824;2022-12-07T05:50:42;0.13;;;0.13;;
48871;SDS011;36154;51.674;7.824;2022-12-07T05:53:07;0.10;;;0.10;;
48871;SDS011;36154;51.674;7.824;2022-12-07T05:55:32;0.20;;;0.20;;
48871;SDS011;36154;51.674;7.824;2022-12-07T05:57:57;0.40;;;0.40;;
48871;SDS011;36154;51.674;7.824;2022-12-07T06:00:41;0.10;;;0.10;;
48871;SDS011;36154;51.674;7.824;2022-12-07T06:03:06;0.20;;;0.20;;
48871;SDS011;36154;51.674;7.824;2022-12-07T06:05:32;0.20;;;0.20;;
48871;SDS011;36154;51.674;7.824;2022-12-07T06:07:57;0.45;;;0.20;;
48871;SDS011;36154;51.674;7.824;2022-12-07T06:10:22;0.20;;;0.20;;
48871;SDS011;36154;51.674;7.824;2022-12-07T06:12:48;0.40;;;0.10;;
48871;SDS011;36154;51.674;7.824;2022-12-07T06:15:13;0.10;;;0.10;;
48871;SDS011;36154;51.674;7.824;2022-12-07T06:17:38;0.25;;;0.20;;
48871;SDS011;36154;51.674;7.824;2022-12-07T06:20:04;0.10;;;0.10;;
48871;SDS011;36154;51.674;7.824;2022-12-07T06:22:30;0.13;;;0.13;;
48871;SDS011;36154;51.674;7.824;2022-12-07T06:24:56;0.22;;;0.22;;
48871;SDS011;36154;51.674;7.824;2022-12-07T06:27:21;0.20;;;0.20;;
48871;SDS011;36154;51.674;7.824;2022-12-07T06:29:46;0.10;;;0.10;;
48871;SDS011;36154;51.674;7.824;2022-12-07T06:32:12;0.47;;;0.10;;
48871;SDS011;36154;51.674;7.824;2022-12-07T06:34:37;0.20;;;0.10;;
48871;SDS011;36154;51.674;7.824;2022-12-07T06:37:02;0.20;;;0.10;;
48871;SDS011;36154;51.674;7.824;2022-12-07T06:39:28;0.10;;;0.10;;
48871;SDS011;36154;51.674;7.824;2022-12-07T06:41:54;0.57;;;0.10;;
48871;SDS011;36154;51.674;7.824;2022-12-07T06:44:20;0.10;;;0.10;;
48871;SDS011;36154;51.674;7.824;2022-12-07T06:46:47;0.32;;;0.28;;
48871;SDS011;36154;51.674;7.824;2022-12-07T06:49:13;0.17;;;0.10;;
48871;SDS011;36154;51.674;7.824;2022-12-07T06:51:38;0.30;;;0.20;;
48871;SDS011;36154;51.674;7.824;2022-12-07T06:54:06;0.20;;;0.20;;
48871;SDS011;36154;51.674;7.824;2022-12-07T06:56:33;0.20;;;0.10;;
48871;SDS011;36154;51.674;7.824;2022-12-07T06:58:58;0.20;;;0.20;;
48871;SDS011;36154;51.674;7.824;2022-12-07T07:01:23;1.15;;;0.30;;
48871;SDS011;36154;51.674;7.824;2022-12-07T07:03:49;0.20;;;0.20;;
48871;SDS011;36154;51.674;7.824;2022-12-07T07:06:14;0.40;;;0.28;;
48871;SDS011;36154;51.674;7.824;2022-12-07T07:08:40;0.40;;;0.30;;
48871;SDS011;36154;51.674;7.824;2022-12-07T07:11:06;0.55;;;0.40;;
48871;SDS011;36154;51.674;7.824;2022-12-07T07:13:32;1.02;;;0.65;;
48871;SDS011;36154;51.674;7.824;2022-12-07T07:15:58;1.15;;;0.55;;
48871;SDS011;36154;51.674;7.824;2022-12-07T07:18:23;0.70;;;0.43;;
48871;SDS011;36154;51.674;7.824;2022-12-07T07:20:50;1.02;;;0.40;;
48871;SDS011;36154;51.674;7.824;2022-12-07T07:23:16;0.75;;;0.40;;
48871;SDS011;36154;51.674;7.824;2022-12-07T07:25:41;0.50;;;0.35;;
48871;SDS011;36154;51.674;7.824;2022-12-07T07:28:07;1.23;;;0.60;;
48871;SDS011;36154;51.674;7.824;2022-12-07T07:30:32;0.85;;;0.60;;
48871;SDS011;36154;51.674;7.824;2022-12-07T07:32:58;1.02;;;0.43;;
48871;SDS011;36154;51.674;7.824;2022-12-07T07:35:27;1.13;;;0.63;;
48871;SDS011;36154;51.674;7.824;2022-12-07T07:37:56;0.82;;;0.40;;
48871;SDS011;36154;51.674;7.824;2022-12-07T07:40:22;0.80;;;0.70;;
48871;SDS011;36154;51.674;7.824;2022-12-07T07:42:48;1.30;;;0.63;;
48871;SDS011;36154;51.674;7.824;2022-12-07T07:45:15;1.92;;;0.90;;
48871;SDS011;36154;51.674;7.824;2022-12-07T07:47:40;1.23;;;0.70;;
48871;SDS011;36154;51.674;7.824;2022-12-07T07:50:05;2.70;;;0.95;;
48871;SDS011;36154;51.674;7.824;2022-12-07T07:52:31;1.38;;;0.75;;
48871;SDS011;36154;51.674;7.824;2022-12-07T07:54:57;1.17;;;0.90;;
48871;SDS011;36154;51.674;7.824;2022-12-07T07:57:22;0.60;;;0.60;;
48871;SDS011;36154;51.674;7.824;2022-12-07T07:59:48;0.60;;;0.60;;
48871;SDS011;36154;51.674;7.824;2022-12-07T08:02:14;0.95;;;0.77;;
48871;SDS011;36154;51.674;7.824;2022-12-07T08:04:40;1.38;;;0.77;;
48871;SDS011;36154;51.674;7.824;2022-12-07T08:07:06;0.75;;;0.60;;
48871;SDS011;36154;51.674;7.824;2022-12-07T08:09:31;1.70;;;1.00;;
48871;SDS011;36154;51.674;7.824;2022-12-07T08:11:57;1.15;;;0.70;;
48871;SDS011;36154;51.674;7.824;2022-12-07T08:14:22;2.13;;;0.90;;
48871;SDS011;36154;51.674;7.824;2022-12-07T08:16:47;1.02;;;0.60;;
48871;SDS011;36154;51.674;7.824;2022-12-07T08:19:13;1.23;;;0.70;;
48871;SDS011;36154;51.674;7.824;2022-12-07T08:21:38;1.52;;;0.73;;
48871;SDS011;36154;51.674;7.824;2022-12-07T08:24:03;1.95;;;0.90;;
48871;SDS011;36154;51.674;7.824;2022-12-07T08:26:29;1.63;;;0.90;;
48871;SDS011;36154;51.674;7.824;2022-12-07T08:28:54;0.70;;;0.60;;
48871;SDS011;36154;51.674;7.824;2022-12-07T08:31:20;0.93;;;0.80;;
48871;SDS011;36154;51.674;7.824;2022-12-07T08:33:46;0.80;;;0.73;;
48871;SDS011;36154;51.674;7.824;2022-12-07T08:36:12;1.48;;;1.00;;
48871;SDS011;36154;51.674;7.824;2022-12-07T08:38:39;2.00;;;1.23;;
48871;SDS011;36154;51.674;7.824;2022-12-07T08:41:06;1.42;;;0.90;;
48871;SDS011;36154;51.674;7.824;2022-12-07T08:43:35;1.40;;;0.75;;
48871;SDS011;36154;51.674;7.824;2022-12-07T08:48:36;1.23;;;0.80;;
48871;SDS011;36154;51.674;7.824;2022-12-07T08:51:05;2.15;;;0.70;;
48871;SDS011;36154;51.674;7.824;2022-12-07T08:53:31;0.77;;;0.70;;
48871;SDS011;36154;51.674;7.824;2022-12-07T08:55:58;2.03;;;0.93;;
48871;SDS011;36154;51.674;7.824;2022-12-07T08:58:23;0.57;;;0.57;;
48871;SDS011;36154;51.674;7.824;2022-12-07T09:00:49;1.50;;;0.60;;
48871;SDS011;36154;51.674;7.824;2022-12-07T09:03:14;0.90;;;0.60;;
48871;SDS011;36154;51.674;7.824;2022-12-07T09:05:39;0.95;;;0.55;;
48871;SDS011;36154;51.674;7.824;2022-12-07T09:08:04;0.90;;;0.60;;
48871;SDS011;36154;51.674;7.824;2022-12-07T09:10:31;0.93;;;0.75;;
48871;SDS011;36154;51.674;7.824;2022-12-07T09:12:56;0.68;;;0.50;;
48871;SDS011;36154;51.674;7.824;2022-12-07T09:15:25;0.80;;;0.50;;
48871;SDS011;36154;51.674;7.824;2022-12-07T09:17:52;0.43;;;0.40;;
48871;SDS011;36154;51.674;7.824;2022-12-07T09:20:17;1.50;;;0.40;;
48871;SDS011;36154;51.674;7.824;2022-12-07T09:22:42;0.43;;;0.40;;
48871;SDS011;36154;51.674;7.824;2022-12-07T09:25:08;0.65;;;0.40;;
48871;SDS011;36154;51.674;7.824;2022-12-07T09:27:33;0.40;;;0.40;;
48871;SDS011;36154;51.674;7.824;2022-12-07T09:29:59;0.68;;;0.30;;
48871;SDS011;36154;51.674;7.824;2022-12-07T09:32:24;0.35;;;0.30;;
48871;SDS011;36154;51.674;7.824;2022-12-07T09:34:49;0.40;;;0.40;;
48871;SDS011;36154;51.674;7.824;2022-12-07T09:37:15;0.35;;;0.30;;
48871;SDS011;36154;51.674;7.824;2022-12-07T09:39:40;0.20;;;0.20;;
48871;SDS011;36154;51.674;7.824;2022-12-07T09:42:06;0.60;;;0.38;;
48871;SDS011;36154;51.674;7.824;2022-12-07T09:44:33;0.38;;;0.30;;
48871;SDS011;36154;51.674;7.824;2022-12-07T09:46:59;0.60;;;0.50;;
48871;SDS011;36154;51.674;7.824;2022-12-07T09:49:27;0.75;;;0.45;;
48871;SDS011;36154;51.674;7.824;2022-12-07T09:51:59;0.28;;;0.28;;
48871;SDS011;36154;51.674;7.824;2022-12-07T09:54:27;0.30;;;0.30;;
48871;SDS011;36154;51.674;7.824;2022-12-07T09:56:55;0.35;;;0.30;;
48871;SDS011;36154;51.674;7.824;2022-12-07T09:59:20;0.82;;;0.40;;
48871;SDS011;36154;51.674;7.824;2022-12-07T10:01:48;0.45;;;0.20;;
48871;SDS011;36154;51.674;7.824;2022-12-07T10:04:24;0.65;;;0.20;;
48871;SDS011;36154;51.674;7.824;2022-12-07T10:06:50;0.38;;;0.38;;
48871;SDS011;36154;51.674;7.824;2022-12-07T10:09:16;0.10;;;0.10;;
48871;SDS011;36154;51.674;7.824;2022-12-07T10:14:30;0.40;;;0.22;;
48871;SDS011;36154;51.674;7.824;2022-12-07T10:16:57;0.30;;;0.20;;
48871;SDS011;36154;51.674;7.824;2022-12-07T10:19:30;0.38;;;0.30;;
48871;SDS011;36154;51.674;7.824;2022-12-07T10:22:00;0.25;;;0.20;;
48871;SDS011;36154;51.674;7.824;2022-12-07T10:24:26;0.63;;;0.22;;
48871;SDS011;36154;51.674;7.824;2022-12-07T10:26:52;0.57;;;0.25;;
48871;SDS011;36154;51.674;7.824;2022-12-07T10:29:52;1.00;;;0.50;;
48871;SDS011;36154;51.674;7.824;2022-12-07T10:34:40;6.13;;;1.92;;
48871;SDS011;36154;51.674;7.824;2022-12-07T10:37:27;15.52;;;3.10;;
48871;SDS011;36154;51.674;7.824;2022-12-07T10:39:53;13.10;;;3.25;;
48871;SDS011;36154;51.674;7.824;2022-12-07T10:50:17;10.73;;;2.58;;
48871;SDS011;36154;51.674;7.824;2022-12-07T10:55:33;8.27;;;2.40;;
48871;SDS011;36154;51.674;7.824;2022-12-07T10:58:23;7.55;;;2.60;;
48871;SDS011;36154;51.674;7.824;2022-12-07T11:11:42;10.77;;;2.58;;
48871;SDS011;36154;51.674;7.824;2022-12-07T11:14:25;6.90;;;1.88;;
48871;SDS011;36154;51.674;7.824;2022-12-07T11:17:03;6.78;;;2.10;;
48871;SDS011;36154;51.674;7.824;2022-12-07T11:25:38;6.57;;;1.98;;
48871;SDS011;36154;51.674;7.824;2022-12-07T11:30:55;2.88;;;1.30;;
48871;SDS011;36154;51.674;7.824;2022-12-07T11:36:14;3.00;;;1.40;;
48871;SDS011;36154;51.674;7.824;2022-12-07T11:39:02;4.68;;;1.35;;
48871;SDS011;36154;51.674;7.824;2022-12-07T11:41:34;2.92;;;1.00;;
48871;SDS011;36154;51.674;7.824;2022-12-07T11:44:07;4.60;;;1.90;;
48871;SDS011;36154;51.674;7.824;2022-12-07T11:58:07;2.83;;;1.80;;
48871;SDS011;36154;51.674;7.824;2022-12-07T12:00:46;3.95;;;1.88;;
48871;SDS011;36154;51.674;7.824;2022-12-07T12:03:15;5.03;;;1.83;;
48871;SDS011;36154;51.674;7.824;2022-12-07T12:05:48;3.38;;;1.90;;
48871;SDS011;36154;51.674;7.824;2022-12-07T12:08:16;5.88;;;2.00;;
48871;SDS011;36154;51.674;7.824;2022-12-07T12:10:55;3.28;;;1.80;;
48871;SDS011;36154;51.674;7.824;2022-12-07T12:13:41;2.80;;;1.70;;
48871;SDS011;36154;51.674;7.824;2022-12-07T12:16:16;1.67;;;1.42;;
48871;SDS011;36154;51.674;7.824;2022-12-07T12:21:48;4.07;;;2.00;;
48871;SDS011;36154;51.674;7.824;2022-12-07T12:24:20;2.03;;;1.42;;
48871;SDS011;36154;51.674;7.824;2022-12-07T12:26:50;4.95;;;2.08;;
48871;SDS011;36154;51.674;7.824;2022-12-07T12:29:21;3.30;;;1.60;;
48871;SDS011;36154;51.674;7.824;2022-12-07T12:32:04;2.10;;;1.38;;
48871;SDS011;36154;51.674;7.824;2022-12-07T12:37:45;2.53;;;1.60;;
48871;SDS011;36154;51.674;7.824;2022-12-07T12:42:46;2.55;;;1.45;;
48871;SDS011;36154;51.674;7.824;2022-12-07T12:45:27;2.90;;;1.70;;
48871;SDS011;36154;51.674;7.824;2022-12-07T12:53:23;3.33;;;1.70;;
48871;SDS011;36154;51.674;7.824;2022-12-07T12:58:25;3.47;;;1.40;;
48871;SDS011;36154;51.674;7.824;2022-12-07T13:03:59;5.15;;;1.83;;
48871;SDS011;36154;51.674;7.824;2022-12-07T13:08:49;3.07;;;1.10;;
48871;SDS011;36154;51.674;7.824;2022-12-07T13:16:59;2.60;;;1.35;;
48871;SDS011;36154;51.674;7.824;2022-12-07T13:24:56;2.10;;;1.15;;
48871;SDS011;36154;51.674;7.824;2022-12-07T13:27:22;2.25;;;1.00;;
48871;SDS011;36154;51.674;7.824;2022-12-07T13:29:50;1.25;;;1.00;;
48871;SDS011;36154;51.674;7.824;2022-12-07T13:32:23;1.58;;;1.00;;
48871;SDS011;36154;51.674;7.824;2022-12-07T13:34:49;1.70;;;1.08;;
48871;SDS011;36154;51.674;7.824;2022-12-07T13:37:20;2.03;;;1.13;;
48871;SDS011;36154;51.674;7.824;2022-12-07T13:39:54;1.00;;;0.90;;
48871;SDS011;36154;51.674;7.824;2022-12-07T13:44:59;1.23;;;0.90;;
48871;SDS011;36154;51.674;7.824;2022-12-07T13:50:23;1.80;;;0.80;;
48871;SDS011;36154;51.674;7.824;2022-12-07T13:52:50;1.20;;;0.77;;
48871;SDS011;36154;51.674;7.824;2022-12-07T13:55:20;1.80;;;0.90;;
48871;SDS011;36154;51.674;7.824;2022-12-07T13:57:47;1.10;;;0.75;;
48871;SDS011;36154;51.674;7.824;2022-12-07T14:00:17;0.60;;;0.60;;
48871;SDS011;36154;51.674;7.824;2022-12-07T14:02:58;0.95;;;0.73;;
48871;SDS011;36154;51.674;7.824;2022-12-07T14:08:01;1.10;;;0.60;;
48871;SDS011;36154;51.674;7.824;2022-12-07T14:10:28;2.30;;;0.85;;
48871;SDS011;36154;51.674;7.824;2022-12-07T14:12:55;1.20;;;0.80;;
48871;SDS011;36154;51.674;7.824;2022-12-07T14:15:23;1.45;;;0.90;;
48871;SDS011;36154;51.674;7.824;2022-12-07T14:17:53;1.00;;;0.73;;
48871;SDS011;36154;51.674;7.824;2022-12-07T14:20:30;0.75;;;0.70;;
48871;SDS011;36154;51.674;7.824;2022-12-07T14:23:01;1.15;;;0.80;;
48871;SDS011;36154;51.674;7.824;2022-12-07T14:25:43;2.63;;;0.75;;
48871;SDS011;36154;51.674;7.824;2022-12-07T14:28:29;0.90;;;0.75;;
48871;SDS011;36154;51.674;7.824;2022-12-07T14:31:00;2.63;;;0.90;;
48871;SDS011;36154;51.674;7.824;2022-12-07T14:33:26;0.80;;;0.73;;
48871;SDS011;36154;51.674;7.824;2022-12-07T14:35:52;0.90;;;0.60;;
48871;SDS011;36154;51.674;7.824;2022-12-07T14:38:20;1.38;;;0.70;;
48871;SDS011;36154;51.674;7.824;2022-12-07T14:40:46;0.60;;;0.60;;
48871;SDS011;36154;51.674;7.824;2022-12-07T14:43:12;0.93;;;0.55;;
48871;SDS011;36154;51.674;7.824;2022-12-07T14:45:40;1.65;;;0.80;;
48871;SDS011;36154;51.674;7.824;2022-12-07T14:48:07;0.50;;;0.50;;
48871;SDS011;36154;51.674;7.824;2022-12-07T14:50:39;1.13;;;0.55;;
48871;SDS011;36154;51.674;7.824;2022-12-07T14:55:37;0.50;;;0.50;;
48871;SDS011;36154;51.674;7.824;2022-12-07T14:58:02;1.02;;;0.60;;
48871;SDS011;36154;51.674;7.824;2022-12-07T15:00:28;1.40;;;0.70;;
48871;SDS011;36154;51.674;7.824;2022-12-07T15:02:54;1.25;;;0.40;;
48871;SDS011;36154;51.674;7.824;2022-12-07T15:05:20;3.10;;;0.80;;
48871;SDS011;36154;51.674;7.824;2022-12-07T15:07:46;0.80;;;0.43;;
48871;SDS011;36154;51.674;7.824;2022-12-07T15:15:45;0.73;;;0.65;;
48871;SDS011;36154;51.674;7.824;2022-12-07T15:18:11;0.85;;;0.85;;
48871;SDS011;36154;51.674;7.824;2022-12-07T15:20:36;1.83;;;0.90;;
48871;SDS011;36154;51.674;7.824;2022-12-07T15:23:02;1.15;;;0.52;;
48871;SDS011;36154;51.674;7.824;2022-12-07T15:25:27;1.40;;;0.63;;
48871;SDS011;36154;51.674;7.824;2022-12-07T15:27:53;4.32;;;0.70;;
48871;SDS011;36154;51.674;7.824;2022-12-07T15:30:18;0.90;;;0.65;;
48871;SDS011;36154;51.674;7.824;2022-12-07T15:32:43;0.68;;;0.50;;
48871;SDS011;36154;51.674;7.824;2022-12-07T15:35:09;0.82;;;0.55;;
48871;SDS011;36154;51.674;7.824;2022-12-07T15:37:34;0.45;;;0.32;;
48871;SDS011;36154;51.674;7.824;2022-12-07T15:39:59;1.15;;;0.68;;
48871;SDS011;36154;51.674;7.824;2022-12-07T15:42:25;0.65;;;0.50;;
48871;SDS011;36154;51.674;7.824;2022-12-07T15:44:50;0.60;;;0.60;;
48871;SDS011;36154;51.674;7.824;2022-12-07T15:47:34;0.65;;;0.52;;
48871;SDS011;36154;51.674;7.824;2022-12-07T15:50:02;0.90;;;0.57;;
48871;SDS011;36154;51.674;7.824;2022-12-07T15:52:29;3.90;;;0.82;;
48871;SDS011;36154;51.674;7.824;2022-12-07T15:54:54;3.92;;;1.35;;
48871;SDS011;36154;51.674;7.824;2022-12-07T15:57:20;4.10;;;1.23;;
48871;SDS011;36154;51.674;7.824;2022-12-07T15:59:45;2.35;;;0.93;;
48871;SDS011;36154;51.674;7.824;2022-12-07T16:02:10;2.92;;;1.13;;
48871;SDS011;36154;51.674;7.824;2022-12-07T16:04:36;2.40;;;1.08;;
48871;SDS011;36154;51.674;7.824;2022-12-07T16:07:01;2.10;;;1.13;;
48871;SDS011;36154;51.674;7.824;2022-12-07T16:09:27;3.25;;;1.10;;
48871;SDS011;36154;51.674;7.824;2022-12-07T16:11:53;1.45;;;1.10;;
48871;SDS011;36154;51.674;7.824;2022-12-07T16:14:18;1.50;;;1.25;;
48871;SDS011;36154;51.674;7.824;2022-12-07T16:16:44;2.35;;;0.98;;
48871;SDS011;36154;51.674;7.824;2022-12-07T16:19:09;3.15;;;1.45;;
48871;SDS011;36154;51.674;7.824;2022-12-07T16:21:35;12.18;;;1.65;;
48871;SDS011;36154;51.674;7.824;2022-12-07T16:24:01;5.47;;;1.20;;
48871;SDS011;36154;51.674;7.824;2022-12-07T16:26:27;5.47;;;1.48;;
48871;SDS011;36154;51.674;7.824;2022-12-07T16:28:52;8.88;;;1.48;;
48871;SDS011;36154;51.674;7.824;2022-12-07T16:31:19;4.55;;;1.25;;
48871;SDS011;36154;51.674;7.824;2022-12-07T16:33:46;3.45;;;1.20;;
48871;SDS011;36154;51.674;7.824;2022-12-07T16:36:13;6.15;;;0.80;;
48871;SDS011;36154;51.674;7.824;2022-12-07T16:38:41;1.02;;;0.93;;
48871;SDS011;36154;51.674;7.824;2022-12-07T16:41:07;1.35;;;0.77;;
48871;SDS011;36154;51.674;7.824;2022-12-07T16:43:32;3.58;;;0.90;;
48871;SDS011;36154;51.674;7.824;2022-12-07T16:45:58;2.22;;;0.93;;
48871;SDS011;36154;51.674;7.824;2022-12-07T16:48:24;3.35;;;1.00;;
48871;SDS011;36154;51.674;7.824;2022-12-07T16:50:49;1.10;;;0.90;;
48871;SDS011;36154;51.674;7.824;2022-12-07T16:53:14;3.33;;;1.30;;
48871;SDS011;36154;51.674;7.824;2022-12-07T16:55:41;3.90;;;1.10;;
48871;SDS011;36154;51.674;7.824;2022-12-07T16:58:09;3.85;;;1.00;;
48871;SDS011;36154;51.674;7.824;2022-12-07T17:00:34;2.22;;;0.98;;